sensor_id;sensor_type;location;lat;lon;timestamp;P1;durP1;ratioP1;P2;durP2;ratioP2
7747;SDS011;3918;42.564;23.164;2024-02-26T05:03:31;6.55;;;5.90;;
7747;SDS011;3918;42.564;23.164;2024-02-26T05:05:58;6.22;;;5.72;;
7747;SDS011;3918;42.564;23.164;2024-02-26T05:08:25;7.68;;;6.15;;
7747;SDS011;3918;42.564;23.164;2024-02-26T05:10:52;6.40;;;5.90;;
7747;SDS011;3918;42.564;23.164;2024-02-26T05:13:19;7.45;;;6.38;;
7747;SDS011;3918;42.564;23.164;2024-02-26T05:15:46;8.38;;;6.53;;
7747;SDS011;3918;42.564;23.164;2024-02-26T05:18:14;14.55;;;6.95;;
7747;SDS011;3918;42.564;23.164;2024-02-26T05:20:42;7.22;;;6.70;;
7747;SDS011;3918;42.564;23.164;2024-02-26T05:23:09;9.90;;;7.28;;
7747;SDS011;3918;42.564;23.164;2024-02-26T05:25:36;10.57;;;8.05;;
7747;SDS011;3918;42.564;23.164;2024-02-26T05:28:03;7.00;;;6.30;;
7747;SDS011;3918;42.564;23.164;2024-02-26T05:30:30;7.15;;;6.55;;
7747;SDS011;3918;42.564;23.164;2024-02-26T05:32:56;8.57;;;6.80;;
7747;SDS011;3918;42.564;23.164;2024-02-26T05:35:24;6.65;;;6.05;;
7747;SDS011;3918;42.564;23.164;2024-02-26T05:37:52;6.90;;;6.40;;
7747;SDS011;3918;42.564;23.164;2024-02-26T05:40:20;8.30;;;7.60;;
7747;SDS011;3918;42.564;23.164;2024-02-26T05:42:46;7.85;;;7.35;;
7747;SDS011;3918;42.564;23.164;2024-02-26T05:45:14;8.20;;;7.40;;
7747;SDS011;3918;42.564;23.164;2024-02-26T05:47:41;8.75;;;7.05;;
7747;SDS011;3918;42.564;23.164;2024-02-26T05:50:10;7.85;;;6.47;;
7747;SDS011;3918;42.564;23.164;2024-02-26T05:52:38;7.45;;;6.75;;
7747;SDS011;3918;42.564;23.164;2024-02-26T05:55:07;7.63;;;6.88;;
7747;SDS011;3918;42.564;23.164;2024-02-26T05:57:34;7.75;;;6.82;;
7747;SDS011;3918;42.564;23.164;2024-02-26T06:00:01;6.78;;;6.10;;
7747;SDS011;3918;42.564;23.164;2024-02-26T06:02:29;6.82;;;6.22;;
7747;SDS011;3918;42.564;23.164;2024-02-26T06:04:56;8.45;;;6.53;;
7747;SDS011;3918;42.564;23.164;2024-02-26T06:07:23;6.97;;;6.20;;
7747;SDS011;3918;42.564;23.164;2024-02-26T06:09:49;6.75;;;6.25;;
7747;SDS011;3918;42.564;23.164;2024-02-26T06:12:18;7.18;;;6.57;;
7747;SDS011;3918;42.564;23.164;2024-02-26T06:14:44;7.38;;;6.75;;
7747;SDS011;3918;42.564;23.164;2024-02-26T06:17:12;6.95;;;6.00;;
7747;SDS011;3918;42.564;23.164;2024-02-26T06:19:39;6.20;;;5.60;;
7747;SDS011;3918;42.564;23.164;2024-02-26T06:22:05;13.20;;;8.18;;
7747;SDS011;3918;42.564;23.164;2024-02-26T06:24:32;6.70;;;6.00;;
7747;SDS011;3918;42.564;23.164;2024-02-26T06:26:59;7.65;;;6.05;;
7747;SDS011;3918;42.564;23.164;2024-02-26T06:29:27;9.10;;;5.60;;
7747;SDS011;3918;42.564;23.164;2024-02-26T06:31:54;8.23;;;5.65;;
7747;SDS011;3918;42.564;23.164;2024-02-26T06:34:20;7.03;;;5.53;;
7747;SDS011;3918;42.564;23.164;2024-02-26T06:36:47;7.82;;;5.50;;
7747;SDS011;3918;42.564;23.164;2024-02-26T06:39:14;7.85;;;5.85;;
7747;SDS011;3918;42.564;23.164;2024-02-26T06:41:41;7.10;;;5.30;;
7747;SDS011;3918;42.564;23.164;2024-02-26T06:44:08;7.03;;;5.63;;
7747;SDS011;3918;42.564;23.164;2024-02-26T06:46:36;6.95;;;6.25;;
7747;SDS011;3918;42.564;23.164;2024-02-26T06:49:02;8.93;;;6.65;;
7747;SDS011;3918;42.564;23.164;2024-02-26T06:51:29;9.35;;;6.00;;
7747;SDS011;3918;42.564;23.164;2024-02-26T06:53:56;8.57;;;6.28;;
7747;SDS011;3918;42.564;23.164;2024-02-26T06:56:23;8.05;;;6.82;;
7747;SDS011;3918;42.564;23.164;2024-02-26T06:58:49;7.57;;;6.40;;
7747;SDS011;3918;42.564;23.164;2024-02-26T07:01:16;13.52;;;6.80;;
7747;SDS011;3918;42.564;23.164;2024-02-26T07:03:45;8.00;;;6.25;;
7747;SDS011;3918;42.564;23.164;2024-02-26T07:06:12;7.35;;;6.72;;
7747;SDS011;3918;42.564;23.164;2024-02-26T07:08:39;11.32;;;7.70;;
7747;SDS011;3918;42.564;23.164;2024-02-26T07:11:06;7.65;;;6.22;;
7747;SDS011;3918;42.564;23.164;2024-02-26T07:13:34;7.95;;;6.72;;
7747;SDS011;3918;42.564;23.164;2024-02-26T07:16:01;7.40;;;6.03;;
7747;SDS011;3918;42.564;23.164;2024-02-26T07:18:28;8.20;;;6.28;;
7747;SDS011;3918;42.564;23.164;2024-02-26T07:20:56;8.88;;;7.95;;
7747;SDS011;3918;42.564;23.164;2024-02-26T07:23:23;10.30;;;8.20;;
7747;SDS011;3918;42.564;23.164;2024-02-26T07:25:50;10.85;;;7.80;;
7747;SDS011;3918;42.564;23.164;2024-02-26T07:28:18;9.48;;;7.45;;
7747;SDS011;3918;42.564;23.164;2024-02-26T07:30:45;7.85;;;7.05;;
7747;SDS011;3918;42.564;23.164;2024-02-26T07:33:11;7.95;;;6.20;;
7747;SDS011;3918;42.564;23.164;2024-02-26T07:35:38;13.38;;;7.68;;
7747;SDS011;3918;42.564;23.164;2024-02-26T07:38:06;10.85;;;6.72;;
7747;SDS011;3918;42.564;23.164;2024-02-26T07:40:33;10.95;;;6.53;;
7747;SDS011;3918;42.564;23.164;2024-02-26T07:43:01;11.57;;;7.40;;
7747;SDS011;3918;42.564;23.164;2024-02-26T07:45:28;9.48;;;6.22;;
7747;SDS011;3918;42.564;23.164;2024-02-26T07:47:54;8.45;;;6.85;;
7747;SDS011;3918;42.564;23.164;2024-02-26T07:50:21;7.50;;;6.25;;
7747;SDS011;3918;42.564;23.164;2024-02-26T07:52:48;10.45;;;6.18;;
7747;SDS011;3918;42.564;23.164;2024-02-26T07:55:17;6.13;;;5.28;;
7747;SDS011;3918;42.564;23.164;2024-02-26T07:57:44;7.43;;;5.70;;
7747;SDS011;3918;42.564;23.164;2024-02-26T08:00:11;6.22;;;5.25;;
7747;SDS011;3918;42.564;23.164;2024-02-26T08:02:41;9.10;;;5.90;;
7747;SDS011;3918;42.564;23.164;2024-02-26T08:05:08;7.00;;;5.80;;
7747;SDS011;3918;42.564;23.164;2024-02-26T08:07:35;7.80;;;5.78;;
7747;SDS011;3918;42.564;23.164;2024-02-26T08:10:02;6.30;;;5.50;;
7747;SDS011;3918;42.564;23.164;2024-02-26T08:12:30;5.82;;;5.32;;
7747;SDS011;3918;42.564;23.164;2024-02-26T08:14:57;6.18;;;4.55;;
7747;SDS011;3918;42.564;23.164;2024-02-26T08:17:24;5.18;;;4.50;;
7747;SDS011;3918;42.564;23.164;2024-02-26T08:19:52;5.97;;;4.68;;
7747;SDS011;3918;42.564;23.164;2024-02-26T08:22:19;8.45;;;4.35;;
7747;SDS011;3918;42.564;23.164;2024-02-26T08:24:45;6.45;;;4.60;;
7747;SDS011;3918;42.564;23.164;2024-02-26T08:27:12;7.32;;;4.07;;
7747;SDS011;3918;42.564;23.164;2024-02-26T08:29:40;6.00;;;3.92;;
7747;SDS011;3918;42.564;23.164;2024-02-26T08:32:07;5.07;;;4.30;;
7747;SDS011;3918;42.564;23.164;2024-02-26T08:34:34;6.32;;;4.47;;
7747;SDS011;3918;42.564;23.164;2024-02-26T08:37:01;6.78;;;4.05;;
7747;SDS011;3918;42.564;23.164;2024-02-26T08:39:27;6.20;;;4.13;;
7747;SDS011;3918;42.564;23.164;2024-02-26T08:41:54;4.35;;;3.85;;
7747;SDS011;3918;42.564;23.164;2024-02-26T08:44:21;7.88;;;4.15;;
7747;SDS011;3918;42.564;23.164;2024-02-26T08:46:49;10.00;;;6.68;;
7747;SDS011;3918;42.564;23.164;2024-02-26T08:49:16;10.73;;;6.55;;
7747;SDS011;3918;42.564;23.164;2024-02-26T08:51:43;11.25;;;7.25;;
7747;SDS011;3918;42.564;23.164;2024-02-26T08:54:10;17.80;;;7.40;;
7747;SDS011;3918;42.564;23.164;2024-02-26T08:56:37;12.50;;;6.90;;
7747;SDS011;3918;42.564;23.164;2024-02-26T08:59:04;15.67;;;8.80;;
7747;SDS011;3918;42.564;23.164;2024-02-26T09:01:31;15.35;;;8.25;;
7747;SDS011;3918;42.564;23.164;2024-02-26T09:03:59;15.15;;;8.88;;
7747;SDS011;3918;42.564;23.164;2024-02-26T09:06:39;12.23;;;8.25;;
7747;SDS011;3918;42.564;23.164;2024-02-26T09:09:05;16.90;;;8.75;;
7747;SDS011;3918;42.564;23.164;2024-02-26T09:11:32;11.27;;;8.20;;
7747;SDS011;3918;42.564;23.164;2024-02-26T09:13:59;8.73;;;6.88;;
7747;SDS011;3918;42.564;23.164;2024-02-26T09:16:25;12.68;;;7.05;;
7747;SDS011;3918;42.564;23.164;2024-02-26T09:18:52;15.73;;;7.70;;
7747;SDS011;3918;42.564;23.164;2024-02-26T09:21:20;11.48;;;6.70;;
7747;SDS011;3918;42.564;23.164;2024-02-26T09:23:49;9.63;;;6.10;;
7747;SDS011;3918;42.564;23.164;2024-02-26T09:26:16;6.88;;;4.90;;
7747;SDS011;3918;42.564;23.164;2024-02-26T09:28:43;12.88;;;7.43;;
7747;SDS011;3918;42.564;23.164;2024-02-26T09:31:10;19.40;;;8.85;;
7747;SDS011;3918;42.564;23.164;2024-02-26T09:33:37;10.88;;;7.25;;
7747;SDS011;3918;42.564;23.164;2024-02-26T09:36:04;13.70;;;7.88;;
7747;SDS011;3918;42.564;23.164;2024-02-26T09:38:32;11.10;;;7.63;;
7747;SDS011;3918;42.564;23.164;2024-02-26T09:41:03;14.00;;;7.50;;
7747;SDS011;3918;42.564;23.164;2024-02-26T09:43:32;12.68;;;7.10;;
7747;SDS011;3918;42.564;23.164;2024-02-26T09:46:01;12.25;;;6.90;;
7747;SDS011;3918;42.564;23.164;2024-02-26T09:48:28;10.70;;;6.22;;
7747;SDS011;3918;42.564;23.164;2024-02-26T09:50:56;9.27;;;5.78;;
7747;SDS011;3918;42.564;23.164;2024-02-26T09:53:23;12.32;;;7.25;;
7747;SDS011;3918;42.564;23.164;2024-02-26T09:55:51;16.55;;;9.00;;
7747;SDS011;3918;42.564;23.164;2024-02-26T09:58:18;16.98;;;8.77;;
7747;SDS011;3918;42.564;23.164;2024-02-26T10:00:46;13.50;;;8.88;;
7747;SDS011;3918;42.564;23.164;2024-02-26T10:03:17;17.13;;;9.40;;
7747;SDS011;3918;42.564;23.164;2024-02-26T10:05:48;22.13;;;11.73;;
7747;SDS011;3918;42.564;23.164;2024-02-26T10:08:18;26.13;;;13.02;;
7747;SDS011;3918;42.564;23.164;2024-02-26T10:10:47;33.72;;;15.73;;
7747;SDS011;3918;42.564;23.164;2024-02-26T10:13:16;27.58;;;14.35;;
7747;SDS011;3918;42.564;23.164;2024-02-26T10:15:44;13.05;;;9.43;;
7747;SDS011;3918;42.564;23.164;2024-02-26T10:18:11;17.55;;;10.05;;
7747;SDS011;3918;42.564;23.164;2024-02-26T10:20:38;19.42;;;9.20;;
7747;SDS011;3918;42.564;23.164;2024-02-26T10:23:05;15.45;;;8.32;;
7747;SDS011;3918;42.564;23.164;2024-02-26T10:25:31;17.10;;;9.23;;
7747;SDS011;3918;42.564;23.164;2024-02-26T10:27:59;13.48;;;9.57;;
7747;SDS011;3918;42.564;23.164;2024-02-26T10:30:29;14.30;;;9.00;;
7747;SDS011;3918;42.564;23.164;2024-02-26T10:32:56;13.57;;;8.85;;
7747;SDS011;3918;42.564;23.164;2024-02-26T10:35:23;21.20;;;10.00;;
7747;SDS011;3918;42.564;23.164;2024-02-26T10:37:51;17.90;;;9.27;;
7747;SDS011;3918;42.564;23.164;2024-02-26T10:40:19;16.42;;;8.18;;
7747;SDS011;3918;42.564;23.164;2024-02-26T10:42:45;15.57;;;8.02;;
7747;SDS011;3918;42.564;23.164;2024-02-26T10:45:12;18.50;;;9.00;;
7747;SDS011;3918;42.564;23.164;2024-02-26T10:47:41;17.27;;;8.63;;
7747;SDS011;3918;42.564;23.164;2024-02-26T10:50:08;12.75;;;9.05;;
7747;SDS011;3918;42.564;23.164;2024-02-26T10:52:35;15.45;;;8.27;;
7747;SDS011;3918;42.564;23.164;2024-02-26T10:55:03;20.35;;;9.40;;
7747;SDS011;3918;42.564;23.164;2024-02-26T10:57:32;13.55;;;9.10;;
7747;SDS011;3918;42.564;23.164;2024-02-26T11:00:03;15.13;;;9.98;;
7747;SDS011;3918;42.564;23.164;2024-02-26T11:02:35;15.70;;;9.18;;
7747;SDS011;3918;42.564;23.164;2024-02-26T11:05:03;17.38;;;9.40;;
7747;SDS011;3918;42.564;23.164;2024-02-26T11:07:31;16.50;;;9.60;;
7747;SDS011;3918;42.564;23.164;2024-02-26T11:10:01;15.93;;;9.82;;
7747;SDS011;3918;42.564;23.164;2024-02-26T11:12:29;10.98;;;8.68;;
7747;SDS011;3918;42.564;23.164;2024-02-26T11:14:57;11.85;;;8.70;;
7747;SDS011;3918;42.564;23.164;2024-02-26T11:17:26;13.80;;;7.82;;
7747;SDS011;3918;42.564;23.164;2024-02-26T11:19:56;13.90;;;8.60;;
7747;SDS011;3918;42.564;23.164;2024-02-26T11:22:25;12.88;;;7.72;;
7747;SDS011;3918;42.564;23.164;2024-02-26T11:24:52;14.27;;;8.63;;
7747;SDS011;3918;42.564;23.164;2024-02-26T11:27:23;12.13;;;7.38;;
7747;SDS011;3918;42.564;23.164;2024-02-26T11:29:55;12.68;;;7.63;;
7747;SDS011;3918;42.564;23.164;2024-02-26T11:32:25;12.68;;;6.88;;
7747;SDS011;3918;42.564;23.164;2024-02-26T11:34:52;8.70;;;6.80;;
7747;SDS011;3918;42.564;23.164;2024-02-26T11:37:20;10.52;;;6.53;;
7747;SDS011;3918;42.564;23.164;2024-02-26T11:39:48;12.13;;;6.85;;
7747;SDS011;3918;42.564;23.164;2024-02-26T11:42:22;11.80;;;6.60;;
7747;SDS011;3918;42.564;23.164;2024-02-26T11:44:50;8.85;;;5.13;;
7747;SDS011;3918;42.564;23.164;2024-02-26T11:47:17;15.88;;;6.60;;
7747;SDS011;3918;42.564;23.164;2024-02-26T11:49:45;7.70;;;5.38;;
7747;SDS011;3918;42.564;23.164;2024-02-26T11:52:13;16.88;;;4.80;;
7747;SDS011;3918;42.564;23.164;2024-02-26T11:54:43;15.23;;;5.70;;
7747;SDS011;3918;42.564;23.164;2024-02-26T11:57:22;8.10;;;6.07;;
7747;SDS011;3918;42.564;23.164;2024-02-26T11:59:48;10.10;;;6.45;;
7747;SDS011;3918;42.564;23.164;2024-02-26T12:05:06;24.30;;;6.80;;
7747;SDS011;3918;42.564;23.164;2024-02-26T12:07:37;22.83;;;7.40;;
7747;SDS011;3918;42.564;23.164;2024-02-26T12:10:22;11.82;;;7.20;;
7747;SDS011;3918;42.564;23.164;2024-02-26T12:13:02;19.92;;;7.47;;
7747;SDS011;3918;42.564;23.164;2024-02-26T12:15:32;14.13;;;7.22;;
7747;SDS011;3918;42.564;23.164;2024-02-26T12:18:00;18.67;;;7.53;;
7747;SDS011;3918;42.564;23.164;2024-02-26T12:20:28;17.45;;;7.30;;
7747;SDS011;3918;42.564;23.164;2024-02-26T12:22:55;16.08;;;7.22;;
7747;SDS011;3918;42.564;23.164;2024-02-26T12:25:23;14.73;;;7.07;;
7747;SDS011;3918;42.564;23.164;2024-02-26T12:27:51;15.15;;;7.55;;
7747;SDS011;3918;42.564;23.164;2024-02-26T12:30:20;12.25;;;7.28;;
7747;SDS011;3918;42.564;23.164;2024-02-26T12:32:47;18.83;;;7.40;;
7747;SDS011;3918;42.564;23.164;2024-02-26T12:35:15;17.27;;;6.35;;
7747;SDS011;3918;42.564;23.164;2024-02-26T12:37:42;22.65;;;7.28;;
7747;SDS011;3918;42.564;23.164;2024-02-26T12:40:10;16.27;;;7.32;;
7747;SDS011;3918;42.564;23.164;2024-02-26T12:42:38;10.70;;;6.25;;
7747;SDS011;3918;42.564;23.164;2024-02-26T12:45:06;12.60;;;7.10;;
7747;SDS011;3918;42.564;23.164;2024-02-26T12:47:37;16.63;;;6.57;;
7747;SDS011;3918;42.564;23.164;2024-02-26T12:50:04;17.33;;;6.40;;
7747;SDS011;3918;42.564;23.164;2024-02-26T12:52:32;12.10;;;6.32;;
7747;SDS011;3918;42.564;23.164;2024-02-26T12:55:00;11.27;;;6.65;;
7747;SDS011;3918;42.564;23.164;2024-02-26T12:57:29;16.88;;;6.90;;
7747;SDS011;3918;42.564;23.164;2024-02-26T12:59:57;13.25;;;6.55;;
7747;SDS011;3918;42.564;23.164;2024-02-26T13:02:25;12.95;;;6.88;;
7747;SDS011;3918;42.564;23.164;2024-02-26T13:04:54;10.10;;;5.90;;
7747;SDS011;3918;42.564;23.164;2024-02-26T13:07:22;17.58;;;6.05;;
7747;SDS011;3918;42.564;23.164;2024-02-26T13:09:48;18.90;;;5.47;;
7747;SDS011;3918;42.564;23.164;2024-02-26T13:12:16;12.45;;;5.95;;
7747;SDS011;3918;42.564;23.164;2024-02-26T13:14:43;12.45;;;5.50;;
7747;SDS011;3918;42.564;23.164;2024-02-26T13:17:09;11.43;;;5.95;;
7747;SDS011;3918;42.564;23.164;2024-02-26T13:19:36;11.93;;;5.55;;
7747;SDS011;3918;42.564;23.164;2024-02-26T13:22:05;13.00;;;6.57;;
7747;SDS011;3918;42.564;23.164;2024-02-26T13:24:32;19.27;;;6.07;;
7747;SDS011;3918;42.564;23.164;2024-02-26T13:26:59;19.65;;;6.13;;
7747;SDS011;3918;42.564;23.164;2024-02-26T13:29:28;16.98;;;6.43;;
7747;SDS011;3918;42.564;23.164;2024-02-26T13:31:55;14.77;;;6.83;;
7747;SDS011;3918;42.564;23.164;2024-02-26T13:34:23;16.10;;;6.18;;
7747;SDS011;3918;42.564;23.164;2024-02-26T13:36:51;20.05;;;6.88;;
7747;SDS011;3918;42.564;23.164;2024-02-26T13:39:23;17.20;;;6.40;;
7747;SDS011;3918;42.564;23.164;2024-02-26T13:41:50;20.73;;;6.13;;
7747;SDS011;3918;42.564;23.164;2024-02-26T13:44:18;24.25;;;6.85;;
7747;SDS011;3918;42.564;23.164;2024-02-26T13:46:45;10.25;;;5.68;;
7747;SDS011;3918;42.564;23.164;2024-02-26T13:49:12;15.52;;;6.40;;
7747;SDS011;3918;42.564;23.164;2024-02-26T13:51:42;27.13;;;6.15;;
7747;SDS011;3918;42.564;23.164;2024-02-26T13:54:09;9.82;;;4.88;;
7747;SDS011;3918;42.564;23.164;2024-02-26T13:56:37;12.35;;;6.05;;
7747;SDS011;3918;42.564;23.164;2024-02-26T13:59:04;21.92;;;6.85;;
7747;SDS011;3918;42.564;23.164;2024-02-26T14:01:31;13.63;;;6.18;;
7747;SDS011;3918;42.564;23.164;2024-02-26T14:03:58;9.77;;;5.25;;
7747;SDS011;3918;42.564;23.164;2024-02-26T14:06:27;12.95;;;5.63;;
7747;SDS011;3918;42.564;23.164;2024-02-26T14:08:53;8.82;;;5.93;;
7747;SDS011;3918;42.564;23.164;2024-02-26T14:11:20;15.38;;;5.95;;
7747;SDS011;3918;42.564;23.164;2024-02-26T14:13:48;12.93;;;6.57;;
7747;SDS011;3918;42.564;23.164;2024-02-26T14:16:15;14.63;;;6.88;;
7747;SDS011;3918;42.564;23.164;2024-02-26T14:18:42;8.90;;;5.57;;
7747;SDS011;3918;42.564;23.164;2024-02-26T14:21:10;12.00;;;5.95;;
7747;SDS011;3918;42.564;23.164;2024-02-26T14:23:37;13.50;;;6.43;;
7747;SDS011;3918;42.564;23.164;2024-02-26T14:26:03;26.42;;;6.45;;
7747;SDS011;3918;42.564;23.164;2024-02-26T14:28:30;12.65;;;6.53;;
7747;SDS011;3918;42.564;23.164;2024-02-26T14:30:59;11.05;;;6.13;;
7747;SDS011;3918;42.564;23.164;2024-02-26T14:33:26;15.02;;;6.00;;
7747;SDS011;3918;42.564;23.164;2024-02-26T14:35:53;14.75;;;6.25;;
7747;SDS011;3918;42.564;23.164;2024-02-26T14:38:19;22.92;;;6.75;;
7747;SDS011;3918;42.564;23.164;2024-02-26T14:40:46;15.30;;;6.20;;
7747;SDS011;3918;42.564;23.164;2024-02-26T14:43:13;16.05;;;6.07;;
7747;SDS011;3918;42.564;23.164;2024-02-26T14:45:40;14.75;;;6.30;;
7747;SDS011;3918;42.564;23.164;2024-02-26T14:48:08;14.85;;;6.45;;
7747;SDS011;3918;42.564;23.164;2024-02-26T14:50:36;15.75;;;7.40;;
7747;SDS011;3918;42.564;23.164;2024-02-26T14:53:03;17.55;;;6.85;;
7747;SDS011;3918;42.564;23.164;2024-02-26T14:55:30;11.13;;;6.53;;
7747;SDS011;3918;42.564;23.164;2024-02-26T14:57:57;20.48;;;6.80;;
7747;SDS011;3918;42.564;23.164;2024-02-26T15:00:24;12.15;;;6.55;;
7747;SDS011;3918;42.564;23.164;2024-02-26T15:02:51;14.70;;;6.75;;
7747;SDS011;3918;42.564;23.164;2024-02-26T15:05:21;25.38;;;7.00;;
7747;SDS011;3918;42.564;23.164;2024-02-26T15:07:47;12.02;;;6.20;;
7747;SDS011;3918;42.564;23.164;2024-02-26T15:10:14;26.92;;;6.78;;
7747;SDS011;3918;42.564;23.164;2024-02-26T15:12:41;18.05;;;6.43;;
7747;SDS011;3918;42.564;23.164;2024-02-26T15:15:08;11.00;;;6.60;;
7747;SDS011;3918;42.564;23.164;2024-02-26T15:17:35;13.15;;;6.32;;
7747;SDS011;3918;42.564;23.164;2024-02-26T15:20:02;12.27;;;6.95;;
7747;SDS011;3918;42.564;23.164;2024-02-26T15:22:33;14.02;;;7.13;;
7747;SDS011;3918;42.564;23.164;2024-02-26T15:25:00;19.48;;;6.28;;
7747;SDS011;3918;42.564;23.164;2024-02-26T15:27:27;15.80;;;6.50;;
7747;SDS011;3918;42.564;23.164;2024-02-26T15:29:54;12.48;;;6.60;;
7747;SDS011;3918;42.564;23.164;2024-02-26T15:32:23;18.23;;;6.63;;
7747;SDS011;3918;42.564;23.164;2024-02-26T15:34:51;12.57;;;6.20;;
7747;SDS011;3918;42.564;23.164;2024-02-26T15:37:18;16.52;;;6.55;;
7747;SDS011;3918;42.564;23.164;2024-02-26T15:39:47;11.00;;;6.30;;
7747;SDS011;3918;42.564;23.164;2024-02-26T15:42:14;11.43;;;6.72;;
7747;SDS011;3918;42.564;23.164;2024-02-26T15:44:41;14.27;;;6.53;;
7747;SDS011;3918;42.564;23.164;2024-02-26T15:47:08;11.98;;;6.65;;
7747;SDS011;3918;42.564;23.164;2024-02-26T15:49:35;13.90;;;6.78;;
7747;SDS011;3918;42.564;23.164;2024-02-26T15:52:02;14.82;;;6.82;;
7747;SDS011;3918;42.564;23.164;2024-02-26T15:54:30;13.35;;;6.72;;
7747;SDS011;3918;42.564;23.164;2024-02-26T15:56:58;17.13;;;6.70;;
7747;SDS011;3918;42.564;23.164;2024-02-26T15:59:24;18.88;;;6.68;;
7747;SDS011;3918;42.564;23.164;2024-02-26T16:01:51;12.52;;;6.68;;
7747;SDS011;3918;42.564;23.164;2024-02-26T16:04:18;14.98;;;7.38;;
7747;SDS011;3918;42.564;23.164;2024-02-26T16:06:47;13.40;;;6.95;;
7747;SDS011;3918;42.564;23.164;2024-02-26T16:09:16;19.30;;;8.57;;
7747;SDS011;3918;42.564;23.164;2024-02-26T16:11:43;23.08;;;12.40;;
7747;SDS011;3918;42.564;23.164;2024-02-26T16:14:14;25.85;;;13.20;;
7747;SDS011;3918;42.564;23.164;2024-02-26T16:16:50;35.60;;;15.43;;
7747;SDS011;3918;42.564;23.164;2024-02-26T16:19:21;24.85;;;13.63;;
7747;SDS011;3918;42.564;23.164;2024-02-26T16:21:49;22.15;;;12.35;;
7747;SDS011;3918;42.564;23.164;2024-02-26T16:24:16;24.15;;;12.15;;
7747;SDS011;3918;42.564;23.164;2024-02-26T16:26:42;21.80;;;11.32;;
7747;SDS011;3918;42.564;23.164;2024-02-26T16:29:09;21.85;;;11.00;;
7747;SDS011;3918;42.564;23.164;2024-02-26T16:31:37;20.43;;;10.93;;
7747;SDS011;3918;42.564;23.164;2024-02-26T16:34:04;22.50;;;12.45;;
7747;SDS011;3918;42.564;23.164;2024-02-26T16:36:31;18.27;;;10.77;;
7747;SDS011;3918;42.564;23.164;2024-02-26T16:38:57;20.13;;;12.07;;
7747;SDS011;3918;42.564;23.164;2024-02-26T16:41:25;18.63;;;10.77;;
7747;SDS011;3918;42.564;23.164;2024-02-26T16:43:52;23.52;;;11.27;;
7747;SDS011;3918;42.564;23.164;2024-02-26T16:46:18;19.52;;;11.10;;
7747;SDS011;3918;42.564;23.164;2024-02-26T16:48:47;25.73;;;10.57;;
7747;SDS011;3918;42.564;23.164;2024-02-26T16:51:16;18.67;;;10.27;;
7747;SDS011;3918;42.564;23.164;2024-02-26T16:53:42;17.90;;;11.00;;
7747;SDS011;3918;42.564;23.164;2024-02-26T16:56:09;19.83;;;9.65;;
7747;SDS011;3918;42.564;23.164;2024-02-26T16:58:36;15.32;;;9.63;;
7747;SDS011;3918;42.564;23.164;2024-02-26T17:01:03;15.27;;;9.50;;
7747;SDS011;3918;42.564;23.164;2024-02-26T17:03:30;17.35;;;8.88;;
7747;SDS011;3918;42.564;23.164;2024-02-26T17:05:58;18.13;;;7.65;;
7747;SDS011;3918;42.564;23.164;2024-02-26T17:08:25;14.43;;;7.63;;
7747;SDS011;3918;42.564;23.164;2024-02-26T17:10:52;10.38;;;6.55;;
7747;SDS011;3918;42.564;23.164;2024-02-26T17:13:19;12.38;;;7.25;;
7747;SDS011;3918;42.564;23.164;2024-02-26T17:15:47;8.40;;;6.40;;
7747;SDS011;3918;42.564;23.164;2024-02-26T17:18:14;11.07;;;6.43;;
7747;SDS011;3918;42.564;23.164;2024-02-26T17:20:41;9.65;;;6.40;;
7747;SDS011;3918;42.564;23.164;2024-02-26T17:23:09;8.10;;;6.03;;
7747;SDS011;3918;42.564;23.164;2024-02-26T17:25:37;9.82;;;6.40;;
7747;SDS011;3918;42.564;23.164;2024-02-26T17:28:04;8.30;;;5.85;;
7747;SDS011;3918;42.564;23.164;2024-02-26T17:30:34;12.02;;;5.82;;
7747;SDS011;3918;42.564;23.164;2024-02-26T17:33:01;10.27;;;5.07;;
7747;SDS011;3918;42.564;23.164;2024-02-26T17:35:28;10.57;;;6.18;;
7747;SDS011;3918;42.564;23.164;2024-02-26T17:37:55;9.52;;;5.80;;
7747;SDS011;3918;42.564;23.164;2024-02-26T17:40:24;8.50;;;5.22;;
7747;SDS011;3918;42.564;23.164;2024-02-26T17:42:51;10.00;;;5.45;;
7747;SDS011;3918;42.564;23.164;2024-02-26T17:45:18;7.05;;;5.72;;
7747;SDS011;3918;42.564;23.164;2024-02-26T17:47:46;7.22;;;5.40;;
7747;SDS011;3918;42.564;23.164;2024-02-26T17:50:15;8.75;;;5.47;;
7747;SDS011;3918;42.564;23.164;2024-02-26T17:52:43;7.80;;;5.72;;
7747;SDS011;3918;42.564;23.164;2024-02-26T17:55:10;6.65;;;5.50;;
7747;SDS011;3918;42.564;23.164;2024-02-26T17:57:38;8.60;;;5.75;;
7747;SDS011;3918;42.564;23.164;2024-02-26T18:00:05;7.13;;;4.45;;
7747;SDS011;3918;42.564;23.164;2024-02-26T18:02:33;4.95;;;4.07;;
7747;SDS011;3918;42.564;23.164;2024-02-26T18:04:59;4.95;;;3.83;;
7747;SDS011;3918;42.564;23.164;2024-02-26T18:07:26;10.63;;;7.78;;
7747;SDS011;3918;42.564;23.164;2024-02-26T18:09:53;10.75;;;8.25;;
7747;SDS011;3918;42.564;23.164;2024-02-26T18:12:19;9.13;;;6.70;;
7747;SDS011;3918;42.564;23.164;2024-02-26T18:14:48;10.48;;;5.95;;
7747;SDS011;3918;42.564;23.164;2024-02-26T18:17:15;11.00;;;6.47;;
7747;SDS011;3918;42.564;23.164;2024-02-26T18:19:43;10.70;;;5.85;;
7747;SDS011;3918;42.564;23.164;2024-02-26T18:22:10;9.88;;;6.43;;
7747;SDS011;3918;42.564;23.164;2024-02-26T18:24:37;6.72;;;4.85;;
7747;SDS011;3918;42.564;23.164;2024-02-26T18:27:04;4.93;;;4.40;;
7747;SDS011;3918;42.564;23.164;2024-02-26T18:29:31;8.60;;;5.10;;
7747;SDS011;3918;42.564;23.164;2024-02-26T18:31:59;6.15;;;4.53;;
7747;SDS011;3918;42.564;23.164;2024-02-26T18:34:26;6.50;;;5.22;;
7747;SDS011;3918;42.564;23.164;2024-02-26T18:36:52;7.72;;;4.95;;
7747;SDS011;3918;42.564;23.164;2024-02-26T18:39:19;5.47;;;4.90;;
7747;SDS011;3918;42.564;23.164;2024-02-26T18:41:46;5.68;;;4.70;;
7747;SDS011;3918;42.564;23.164;2024-02-26T18:44:12;11.25;;;5.40;;
7747;SDS011;3918;42.564;23.164;2024-02-26T18:46:42;12.43;;;6.53;;
7747;SDS011;3918;42.564;23.164;2024-02-26T18:49:11;7.28;;;6.50;;
7747;SDS011;3918;42.564;23.164;2024-02-26T18:51:38;8.25;;;5.35;;
7747;SDS011;3918;42.564;23.164;2024-02-26T18:54:05;10.27;;;5.13;;
7747;SDS011;3918;42.564;23.164;2024-02-26T18:56:32;5.15;;;4.65;;
7747;SDS011;3918;42.564;23.164;2024-02-26T18:58:58;8.27;;;4.78;;
7747;SDS011;3918;42.564;23.164;2024-02-26T19:01:25;5.72;;;4.85;;
7747;SDS011;3918;42.564;23.164;2024-02-26T19:03:52;4.53;;;4.13;;
7747;SDS011;3918;42.564;23.164;2024-02-26T19:06:20;4.63;;;4.20;;
7747;SDS011;3918;42.564;23.164;2024-02-26T19:08:47;10.00;;;4.65;;
7747;SDS011;3918;42.564;23.164;2024-02-26T19:11:14;5.68;;;4.97;;
7747;SDS011;3918;42.564;23.164;2024-02-26T19:16:03;14.15;;;7.43;;
7747;SDS011;3918;42.564;23.164;2024-02-26T19:18:30;13.88;;;7.82;;
7747;SDS011;3918;42.564;23.164;2024-02-26T19:20:57;10.40;;;6.82;;
7747;SDS011;3918;42.564;23.164;2024-02-26T19:23:24;6.40;;;4.82;;
7747;SDS011;3918;42.564;23.164;2024-02-26T19:25:51;4.63;;;4.18;;
7747;SDS011;3918;42.564;23.164;2024-02-26T19:28:17;4.00;;;3.70;;
7747;SDS011;3918;42.564;23.164;2024-02-26T19:30:44;4.03;;;3.63;;
7747;SDS011;3918;42.564;23.164;2024-02-26T19:33:12;7.50;;;4.97;;
7747;SDS011;3918;42.564;23.164;2024-02-26T19:35:39;8.50;;;6.05;;
7747;SDS011;3918;42.564;23.164;2024-02-26T19:38:06;5.80;;;5.05;;
7747;SDS011;3918;42.564;23.164;2024-02-26T19:40:33;8.02;;;4.15;;
7747;SDS011;3918;42.564;23.164;2024-02-26T19:43:00;3.75;;;3.42;;
7747;SDS011;3918;42.564;23.164;2024-02-26T19:45:28;5.35;;;4.15;;
7747;SDS011;3918;42.564;23.164;2024-02-26T19:47:55;4.53;;;4.00;;
7747;SDS011;3918;42.564;23.164;2024-02-26T19:50:23;5.95;;;4.15;;
7747;SDS011;3918;42.564;23.164;2024-02-26T19:52:50;5.60;;;4.28;;
7747;SDS011;3918;42.564;23.164;2024-02-26T19:55:17;8.35;;;4.75;;
7747;SDS011;3918;42.564;23.164;2024-02-26T19:57:46;7.07;;;4.90;;
7747;SDS011;3918;42.564;23.164;2024-02-26T20:00:13;6.97;;;5.50;;
